sensor_id;sensor_type;location;lat;lon;timestamp;P1;durP1;ratioP1;P2;durP2;ratioP2
4248;SDS011;8404;48.752;12.922;2022-12-20T00:01:28;42.92;;;22.65;;
4248;SDS011;8404;48.752;12.922;2022-12-20T00:04:00;42.88;;;22.45;;
4248;SDS011;8404;48.752;12.922;2022-12-20T00:06:32;37.63;;;22.50;;
4248;SDS011;8404;48.752;12.922;2022-12-20T00:09:02;36.78;;;21.80;;
4248;SDS011;8404;48.752;12.922;2022-12-20T00:11:32;36.60;;;20.77;;
4248;SDS011;8404;48.752;12.922;2022-12-20T00:14:01;40.10;;;23.10;;
4248;SDS011;8404;48.752;12.922;2022-12-20T00:16:29;39.50;;;22.23;;
4248;SDS011;8404;48.752;12.922;2022-12-20T00:18:58;38.40;;;23.08;;
4248;SDS011;8404;48.752;12.922;2022-12-20T00:21:29;42.75;;;24.17;;
4248;SDS011;8404;48.752;12.922;2022-12-20T00:23:59;41.95;;;24.35;;
4248;SDS011;8404;48.752;12.922;2022-12-20T00:26:28;41.88;;;22.63;;
4248;SDS011;8404;48.752;12.922;2022-12-20T00:28:58;38.85;;;22.27;;
4248;SDS011;8404;48.752;12.922;2022-12-20T00:31:28;44.15;;;23.25;;
4248;SDS011;8404;48.752;12.922;2022-12-20T00:33:57;41.75;;;24.15;;
4248;SDS011;8404;48.752;12.922;2022-12-20T00:36:30;43.55;;;24.50;;
4248;SDS011;8404;48.752;12.922;2022-12-20T00:38:59;40.83;;;23.38;;
4248;SDS011;8404;48.752;12.922;2022-12-20T00:41:29;40.70;;;23.60;;
4248;SDS011;8404;48.752;12.922;2022-12-20T00:43:57;45.67;;;25.33;;
4248;SDS011;8404;48.752;12.922;2022-12-20T00:46:26;45.10;;;24.35;;
4248;SDS011;8404;48.752;12.922;2022-12-20T00:48:55;39.53;;;22.05;;
4248;SDS011;8404;48.752;12.922;2022-12-20T00:51:24;39.78;;;24.10;;
4248;SDS011;8404;48.752;12.922;2022-12-20T00:53:55;42.88;;;23.80;;
4248;SDS011;8404;48.752;12.922;2022-12-20T00:56:24;44.08;;;24.55;;
4248;SDS011;8404;48.752;12.922;2022-12-20T00:58:54;46.85;;;24.42;;
4248;SDS011;8404;48.752;12.922;2022-12-20T01:01:25;45.65;;;24.08;;
4248;SDS011;8404;48.752;12.922;2022-12-20T04:31:10;40.67;;;20.83;;
4248;SDS011;8404;48.752;12.922;2022-12-20T04:33:48;38.80;;;21.25;;
4248;SDS011;8404;48.752;12.922;2022-12-20T04:36:16;41.13;;;21.50;;
4248;SDS011;8404;48.752;12.922;2022-12-20T04:38:44;37.88;;;22.45;;
4248;SDS011;8404;48.752;12.922;2022-12-20T04:41:12;40.55;;;22.98;;
4248;SDS011;8404;48.752;12.922;2022-12-20T04:43:53;37.75;;;21.67;;
4248;SDS011;8404;48.752;12.922;2022-12-20T04:46:32;40.55;;;21.02;;
4248;SDS011;8404;48.752;12.922;2022-12-20T04:49:01;43.72;;;22.98;;
4248;SDS011;8404;48.752;12.922;2022-12-20T04:51:32;35.92;;;20.73;;
4248;SDS011;8404;48.752;12.922;2022-12-20T04:54:00;42.08;;;22.40;;
4248;SDS011;8404;48.752;12.922;2022-12-20T04:56:42;39.70;;;22.15;;
4248;SDS011;8404;48.752;12.922;2022-12-20T04:59:15;42.95;;;23.38;;
4248;SDS011;8404;48.752;12.922;2022-12-20T05:01:47;39.40;;;22.65;;
4248;SDS011;8404;48.752;12.922;2022-12-20T05:04:30;37.35;;;21.52;;
4248;SDS011;8404;48.752;12.922;2022-12-20T05:07:03;39.92;;;20.63;;
4248;SDS011;8404;48.752;12.922;2022-12-20T05:09:33;39.10;;;22.52;;
4248;SDS011;8404;48.752;12.922;2022-12-20T05:12:01;42.47;;;21.42;;
4248;SDS011;8404;48.752;12.922;2022-12-20T05:14:32;37.22;;;21.85;;
4248;SDS011;8404;48.752;12.922;2022-12-20T05:17:02;40.60;;;21.05;;
4248;SDS011;8404;48.752;12.922;2022-12-20T05:19:30;41.38;;;22.50;;
4248;SDS011;8404;48.752;12.922;2022-12-20T05:21:59;39.60;;;21.77;;
4248;SDS011;8404;48.752;12.922;2022-12-20T05:24:59;36.30;;;20.20;;
4248;SDS011;8404;48.752;12.922;2022-12-20T05:27:47;37.10;;;20.77;;
4248;SDS011;8404;48.752;12.922;2022-12-20T05:30:15;39.47;;;21.50;;
4248;SDS011;8404;48.752;12.922;2022-12-20T05:32:45;34.83;;;21.30;;
4248;SDS011;8404;48.752;12.922;2022-12-20T05:35:14;39.13;;;20.60;;
4248;SDS011;8404;48.752;12.922;2022-12-20T05:37:44;40.38;;;22.00;;
4248;SDS011;8404;48.752;12.922;2022-12-20T05:40:16;41.33;;;22.52;;
4248;SDS011;8404;48.752;12.922;2022-12-20T05:42:44;40.50;;;22.98;;
4248;SDS011;8404;48.752;12.922;2022-12-20T05:45:13;42.38;;;23.48;;
4248;SDS011;8404;48.752;12.922;2022-12-20T05:47:51;41.80;;;22.10;;
4248;SDS011;8404;48.752;12.922;2022-12-20T05:50:20;37.72;;;22.35;;
4248;SDS011;8404;48.752;12.922;2022-12-20T05:53:20;39.80;;;21.25;;
4248;SDS011;8404;48.752;12.922;2022-12-20T05:55:52;40.92;;;22.00;;
4248;SDS011;8404;48.752;12.922;2022-12-20T05:58:26;41.58;;;22.65;;
4248;SDS011;8404;48.752;12.922;2022-12-20T06:01:03;35.53;;;20.83;;
4248;SDS011;8404;48.752;12.922;2022-12-20T06:03:37;44.42;;;23.45;;
4248;SDS011;8404;48.752;12.922;2022-12-20T06:06:15;35.45;;;20.80;;
4248;SDS011;8404;48.752;12.922;2022-12-20T06:08:45;39.05;;;22.30;;
4248;SDS011;8404;48.752;12.922;2022-12-20T06:11:19;46.33;;;24.25;;
4248;SDS011;8404;48.752;12.922;2022-12-20T06:14:07;40.03;;;21.25;;
4248;SDS011;8404;48.752;12.922;2022-12-20T06:16:40;43.28;;;21.45;;
4248;SDS011;8404;48.752;12.922;2022-12-20T06:19:11;42.20;;;22.90;;
4248;SDS011;8404;48.752;12.922;2022-12-20T06:21:47;43.10;;;23.42;;
4248;SDS011;8404;48.752;12.922;2022-12-20T06:24:20;39.08;;;21.20;;
4248;SDS011;8404;48.752;12.922;2022-12-20T06:26:51;43.17;;;22.50;;
4248;SDS011;8404;48.752;12.922;2022-12-20T06:29:19;43.88;;;23.50;;
4248;SDS011;8404;48.752;12.922;2022-12-20T06:31:54;37.58;;;20.67;;
4248;SDS011;8404;48.752;12.922;2022-12-20T06:34:24;43.40;;;22.00;;
4248;SDS011;8404;48.752;12.922;2022-12-20T06:36:52;41.85;;;22.80;;
4248;SDS011;8404;48.752;12.922;2022-12-20T06:39:24;40.95;;;21.55;;
4248;SDS011;8404;48.752;12.922;2022-12-20T06:42:12;45.38;;;22.73;;
4248;SDS011;8404;48.752;12.922;2022-12-20T06:44:42;43.15;;;22.60;;
4248;SDS011;8404;48.752;12.922;2022-12-20T06:47:10;42.28;;;23.17;;
4248;SDS011;8404;48.752;12.922;2022-12-20T06:49:40;47.83;;;22.25;;
4248;SDS011;8404;48.752;12.922;2022-12-20T06:52:16;46.13;;;23.05;;
4248;SDS011;8404;48.752;12.922;2022-12-20T06:54:48;41.55;;;22.20;;
4248;SDS011;8404;48.752;12.922;2022-12-20T06:57:19;48.97;;;23.27;;
4248;SDS011;8404;48.752;12.922;2022-12-20T06:59:47;44.42;;;23.10;;
4248;SDS011;8404;48.752;12.922;2022-12-20T07:02:15;44.03;;;23.63;;
4248;SDS011;8404;48.752;12.922;2022-12-20T07:04:45;46.22;;;23.05;;
4248;SDS011;8404;48.752;12.922;2022-12-20T07:07:13;47.88;;;22.83;;
4248;SDS011;8404;48.752;12.922;2022-12-20T07:09:42;40.28;;;21.80;;
4248;SDS011;8404;48.752;12.922;2022-12-20T07:12:10;45.28;;;22.23;;
4248;SDS011;8404;48.752;12.922;2022-12-20T07:14:39;50.92;;;24.83;;
4248;SDS011;8404;48.752;12.922;2022-12-20T07:17:07;49.45;;;24.77;;
4248;SDS011;8404;48.752;12.922;2022-12-20T07:19:36;41.15;;;22.35;;
4248;SDS011;8404;48.752;12.922;2022-12-20T07:22:05;40.97;;;21.77;;
4248;SDS011;8404;48.752;12.922;2022-12-20T07:24:33;46.67;;;22.77;;
4248;SDS011;8404;48.752;12.922;2022-12-20T07:27:01;43.00;;;21.60;;
4248;SDS011;8404;48.752;12.922;2022-12-20T07:29:29;47.88;;;22.75;;
4248;SDS011;8404;48.752;12.922;2022-12-20T07:31:58;43.45;;;22.40;;
4248;SDS011;8404;48.752;12.922;2022-12-20T07:34:26;57.53;;;28.85;;
4248;SDS011;8404;48.752;12.922;2022-12-20T07:36:54;52.05;;;28.80;;
4248;SDS011;8404;48.752;12.922;2022-12-20T07:39:23;45.03;;;25.60;;
4248;SDS011;8404;48.752;12.922;2022-12-20T07:41:53;69.13;;;32.60;;
4248;SDS011;8404;48.752;12.922;2022-12-20T07:44:22;75.63;;;36.70;;
4248;SDS011;8404;48.752;12.922;2022-12-20T07:46:50;58.78;;;32.08;;
4248;SDS011;8404;48.752;12.922;2022-12-20T07:49:18;55.78;;;31.00;;
4248;SDS011;8404;48.752;12.922;2022-12-20T07:51:47;45.35;;;23.92;;
4248;SDS011;8404;48.752;12.922;2022-12-20T07:54:20;45.22;;;23.48;;
4248;SDS011;8404;48.752;12.922;2022-12-20T07:56:55;46.20;;;25.75;;
4248;SDS011;8404;48.752;12.922;2022-12-20T07:59:28;47.53;;;24.38;;
4248;SDS011;8404;48.752;12.922;2022-12-20T08:02:03;49.50;;;24.50;;
4248;SDS011;8404;48.752;12.922;2022-12-20T08:04:32;52.50;;;26.50;;
4248;SDS011;8404;48.752;12.922;2022-12-20T08:07:00;47.45;;;26.17;;
4248;SDS011;8404;48.752;12.922;2022-12-20T08:09:33;44.70;;;24.83;;
4248;SDS011;8404;48.752;12.922;2022-12-20T08:12:05;51.05;;;26.05;;
4248;SDS011;8404;48.752;12.922;2022-12-20T08:14:35;48.83;;;25.48;;
4248;SDS011;8404;48.752;12.922;2022-12-20T08:17:03;47.25;;;24.65;;
4248;SDS011;8404;48.752;12.922;2022-12-20T08:19:31;51.05;;;25.55;;
4248;SDS011;8404;48.752;12.922;2022-12-20T08:21:59;50.42;;;26.42;;
4248;SDS011;8404;48.752;12.922;2022-12-20T08:24:28;49.63;;;24.38;;
4248;SDS011;8404;48.752;12.922;2022-12-20T08:26:57;62.55;;;30.65;;
4248;SDS011;8404;48.752;12.922;2022-12-20T08:29:25;44.90;;;24.08;;
4248;SDS011;8404;48.752;12.922;2022-12-20T08:31:53;49.85;;;24.98;;
4248;SDS011;8404;48.752;12.922;2022-12-20T08:34:21;46.13;;;24.15;;
4248;SDS011;8404;48.752;12.922;2022-12-20T08:36:49;47.33;;;25.25;;
4248;SDS011;8404;48.752;12.922;2022-12-20T08:39:17;53.03;;;27.70;;
4248;SDS011;8404;48.752;12.922;2022-12-20T08:41:48;46.50;;;25.80;;
4248;SDS011;8404;48.752;12.922;2022-12-20T08:44:18;48.75;;;28.90;;
4248;SDS011;8404;48.752;12.922;2022-12-20T08:46:46;49.33;;;26.95;;
4248;SDS011;8404;48.752;12.922;2022-12-20T08:49:14;49.97;;;26.40;;
4248;SDS011;8404;48.752;12.922;2022-12-20T08:51:42;49.28;;;28.17;;
4248;SDS011;8404;48.752;12.922;2022-12-20T08:54:10;51.38;;;25.38;;
4248;SDS011;8404;48.752;12.922;2022-12-20T08:56:38;53.53;;;28.00;;
4248;SDS011;8404;48.752;12.922;2022-12-20T08:59:06;53.55;;;28.90;;
4248;SDS011;8404;48.752;12.922;2022-12-20T09:01:36;52.00;;;26.90;;
4248;SDS011;8404;48.752;12.922;2022-12-20T09:04:04;55.85;;;26.20;;
4248;SDS011;8404;48.752;12.922;2022-12-20T09:06:33;48.35;;;25.42;;
4248;SDS011;8404;48.752;12.922;2022-12-20T09:09:02;49.13;;;24.48;;
4248;SDS011;8404;48.752;12.922;2022-12-20T09:11:30;53.13;;;27.60;;
4248;SDS011;8404;48.752;12.922;2022-12-20T09:13:58;47.35;;;23.88;;
4248;SDS011;8404;48.752;12.922;2022-12-20T09:16:27;54.15;;;25.90;;
4248;SDS011;8404;48.752;12.922;2022-12-20T09:18:59;52.67;;;26.63;;
4248;SDS011;8404;48.752;12.922;2022-12-20T09:21:31;54.08;;;26.02;;
4248;SDS011;8404;48.752;12.922;2022-12-20T09:24:00;66.93;;;32.85;;
4248;SDS011;8404;48.752;12.922;2022-12-20T09:26:28;52.83;;;25.45;;
4248;SDS011;8404;48.752;12.922;2022-12-20T09:28:57;53.55;;;27.42;;
4248;SDS011;8404;48.752;12.922;2022-12-20T09:31:27;52.35;;;24.13;;
4248;SDS011;8404;48.752;12.922;2022-12-20T09:33:56;47.75;;;24.38;;
4248;SDS011;8404;48.752;12.922;2022-12-20T09:36:27;51.67;;;25.77;;
4248;SDS011;8404;48.752;12.922;2022-12-20T09:38:56;51.45;;;25.63;;
4248;SDS011;8404;48.752;12.922;2022-12-20T09:41:36;48.67;;;24.65;;
4248;SDS011;8404;48.752;12.922;2022-12-20T09:44:10;53.17;;;24.85;;
4248;SDS011;8404;48.752;12.922;2022-12-20T09:46:42;45.47;;;23.67;;
4248;SDS011;8404;48.752;12.922;2022-12-20T09:49:12;49.90;;;24.20;;
4248;SDS011;8404;48.752;12.922;2022-12-20T09:51:52;47.33;;;25.00;;
4248;SDS011;8404;48.752;12.922;2022-12-20T09:54:40;51.35;;;24.73;;
4248;SDS011;8404;48.752;12.922;2022-12-20T09:57:42;52.53;;;27.10;;
4248;SDS011;8404;48.752;12.922;2022-12-20T10:00:19;49.05;;;25.05;;
4248;SDS011;8404;48.752;12.922;2022-12-20T10:02:47;48.97;;;24.60;;
4248;SDS011;8404;48.752;12.922;2022-12-20T10:05:34;48.88;;;24.75;;
4248;SDS011;8404;48.752;12.922;2022-12-20T10:08:14;50.60;;;25.45;;
4248;SDS011;8404;48.752;12.922;2022-12-20T10:10:50;54.47;;;26.08;;
4248;SDS011;8404;48.752;12.922;2022-12-20T10:13:33;51.75;;;24.67;;
4248;SDS011;8404;48.752;12.922;2022-12-20T10:16:10;48.80;;;24.02;;
4248;SDS011;8404;48.752;12.922;2022-12-20T10:18:49;51.70;;;25.25;;
4248;SDS011;8404;48.752;12.922;2022-12-20T10:21:26;52.55;;;26.00;;
4248;SDS011;8404;48.752;12.922;2022-12-20T10:24:08;56.20;;;27.90;;
4248;SDS011;8404;48.752;12.922;2022-12-20T10:26:39;57.47;;;29.52;;
4248;SDS011;8404;48.752;12.922;2022-12-20T10:29:07;60.75;;;30.10;;
4248;SDS011;8404;48.752;12.922;2022-12-20T10:31:36;65.03;;;34.83;;
4248;SDS011;8404;48.752;12.922;2022-12-20T10:34:05;56.40;;;27.48;;
4248;SDS011;8404;48.752;12.922;2022-12-20T10:36:35;49.58;;;24.52;;
4248;SDS011;8404;48.752;12.922;2022-12-20T10:39:06;50.33;;;26.05;;
4248;SDS011;8404;48.752;12.922;2022-12-20T10:41:45;48.80;;;26.02;;
4248;SDS011;8404;48.752;12.922;2022-12-20T10:44:17;48.25;;;24.88;;
4248;SDS011;8404;48.752;12.922;2022-12-20T10:46:50;47.85;;;24.60;;
4248;SDS011;8404;48.752;12.922;2022-12-20T10:49:22;51.03;;;24.80;;
4248;SDS011;8404;48.752;12.922;2022-12-20T10:51:58;47.85;;;24.30;;
4248;SDS011;8404;48.752;12.922;2022-12-20T10:54:30;45.15;;;23.40;;
4248;SDS011;8404;48.752;12.922;2022-12-20T10:57:01;47.10;;;24.42;;
4248;SDS011;8404;48.752;12.922;2022-12-20T10:59:41;53.75;;;24.20;;
4248;SDS011;8404;48.752;12.922;2022-12-20T11:02:20;43.42;;;24.92;;
4248;SDS011;8404;48.752;12.922;2022-12-20T11:05:00;48.28;;;25.10;;
4248;SDS011;8404;48.752;12.922;2022-12-20T11:07:32;49.53;;;26.00;;
4248;SDS011;8404;48.752;12.922;2022-12-20T11:10:02;48.00;;;23.98;;
4248;SDS011;8404;48.752;12.922;2022-12-20T11:12:51;46.55;;;24.65;;
4248;SDS011;8404;48.752;12.922;2022-12-20T11:15:22;51.28;;;25.98;;
4248;SDS011;8404;48.752;12.922;2022-12-20T11:18:03;47.60;;;25.90;;
4248;SDS011;8404;48.752;12.922;2022-12-20T11:20:34;47.63;;;24.73;;
4248;SDS011;8404;48.752;12.922;2022-12-20T11:23:09;49.78;;;24.98;;
4248;SDS011;8404;48.752;12.922;2022-12-20T11:25:49;52.40;;;26.02;;
4248;SDS011;8404;48.752;12.922;2022-12-20T11:28:36;49.15;;;23.98;;
4248;SDS011;8404;48.752;12.922;2022-12-20T11:31:14;47.00;;;24.48;;
4248;SDS011;8404;48.752;12.922;2022-12-20T11:33:49;49.55;;;25.50;;
4248;SDS011;8404;48.752;12.922;2022-12-20T11:36:28;54.03;;;27.35;;
4248;SDS011;8404;48.752;12.922;2022-12-20T11:39:12;46.17;;;24.65;;
4248;SDS011;8404;48.752;12.922;2022-12-20T11:41:53;49.42;;;25.90;;
4248;SDS011;8404;48.752;12.922;2022-12-20T11:44:28;50.70;;;25.15;;
4248;SDS011;8404;48.752;12.922;2022-12-20T11:47:36;52.20;;;27.27;;
4248;SDS011;8404;48.752;12.922;2022-12-20T11:50:35;49.75;;;25.13;;
4248;SDS011;8404;48.752;12.922;2022-12-20T11:53:14;46.40;;;24.55;;
4248;SDS011;8404;48.752;12.922;2022-12-20T11:55:48;45.55;;;25.17;;
4248;SDS011;8404;48.752;12.922;2022-12-20T11:58:22;49.92;;;25.40;;
4248;SDS011;8404;48.752;12.922;2022-12-20T12:00:55;53.78;;;26.35;;
4248;SDS011;8404;48.752;12.922;2022-12-20T12:03:29;53.20;;;26.73;;
4248;SDS011;8404;48.752;12.922;2022-12-20T12:06:02;50.30;;;25.33;;
4248;SDS011;8404;48.752;12.922;2022-12-20T12:08:35;46.78;;;23.98;;
4248;SDS011;8404;48.752;12.922;2022-12-20T12:11:13;52.90;;;27.25;;
4248;SDS011;8404;48.752;12.922;2022-12-20T12:14:07;52.78;;;24.58;;
4248;SDS011;8404;48.752;12.922;2022-12-20T12:16:46;42.00;;;23.75;;
4248;SDS011;8404;48.752;12.922;2022-12-20T12:19:19;55.28;;;25.63;;
4248;SDS011;8404;48.752;12.922;2022-12-20T12:21:51;48.67;;;25.30;;
4248;SDS011;8404;48.752;12.922;2022-12-20T12:24:24;49.50;;;25.02;;
4248;SDS011;8404;48.752;12.922;2022-12-20T12:26:58;51.65;;;26.02;;
4248;SDS011;8404;48.752;12.922;2022-12-20T12:29:31;46.63;;;24.75;;
4248;SDS011;8404;48.752;12.922;2022-12-20T12:32:01;45.88;;;23.45;;
4248;SDS011;8404;48.752;12.922;2022-12-20T12:34:37;45.92;;;24.35;;
4248;SDS011;8404;48.752;12.922;2022-12-20T12:37:25;48.92;;;25.15;;
4248;SDS011;8404;48.752;12.922;2022-12-20T12:40:20;52.22;;;25.70;;
4248;SDS011;8404;48.752;12.922;2022-12-20T12:43:24;47.40;;;24.40;;
4248;SDS011;8404;48.752;12.922;2022-12-20T12:46:16;52.70;;;26.80;;
4248;SDS011;8404;48.752;12.922;2022-12-20T12:48:48;52.55;;;26.67;;
4248;SDS011;8404;48.752;12.922;2022-12-20T12:51:22;52.22;;;27.00;;
4248;SDS011;8404;48.752;12.922;2022-12-20T12:54:01;52.67;;;26.48;;
4248;SDS011;8404;48.752;12.922;2022-12-20T12:56:36;52.72;;;26.73;;
4248;SDS011;8404;48.752;12.922;2022-12-20T12:59:38;57.42;;;29.92;;
4248;SDS011;8404;48.752;12.922;2022-12-20T13:02:22;47.15;;;25.30;;
4248;SDS011;8404;48.752;12.922;2022-12-20T13:08:00;63.63;;;33.03;;
4248;SDS011;8404;48.752;12.922;2022-12-20T13:13:27;55.72;;;29.02;;
4248;SDS011;8404;48.752;12.922;2022-12-20T13:16:25;62.55;;;34.00;;
4248;SDS011;8404;48.752;12.922;2022-12-20T13:19:33;49.35;;;26.83;;
4248;SDS011;8404;48.752;12.922;2022-12-20T13:22:12;54.33;;;27.98;;
4248;SDS011;8404;48.752;12.922;2022-12-20T13:24:50;79.28;;;40.22;;
4248;SDS011;8404;48.752;12.922;2022-12-20T13:27:28;63.03;;;32.58;;
4248;SDS011;8404;48.752;12.922;2022-12-20T13:30:01;54.83;;;28.05;;
4248;SDS011;8404;48.752;12.922;2022-12-20T13:32:53;49.45;;;26.65;;
4248;SDS011;8404;48.752;12.922;2022-12-20T13:35:29;58.63;;;29.63;;
4248;SDS011;8404;48.752;12.922;2022-12-20T13:37:59;64.85;;;30.00;;
4248;SDS011;8404;48.752;12.922;2022-12-20T13:40:32;65.70;;;30.65;;
4248;SDS011;8404;48.752;12.922;2022-12-20T13:43:04;48.35;;;26.05;;
4248;SDS011;8404;48.752;12.922;2022-12-20T13:45:38;47.22;;;23.85;;
4248;SDS011;8404;48.752;12.922;2022-12-20T13:48:13;56.67;;;27.90;;
4248;SDS011;8404;48.752;12.922;2022-12-20T13:50:47;46.40;;;25.45;;
4248;SDS011;8404;48.752;12.922;2022-12-20T13:53:17;49.13;;;26.77;;
4248;SDS011;8404;48.752;12.922;2022-12-20T13:55:47;50.63;;;27.27;;
4248;SDS011;8404;48.752;12.922;2022-12-20T13:58:16;53.58;;;27.73;;
4248;SDS011;8404;48.752;12.922;2022-12-20T14:00:46;53.15;;;26.58;;
4248;SDS011;8404;48.752;12.922;2022-12-20T14:03:18;52.45;;;27.13;;
4248;SDS011;8404;48.752;12.922;2022-12-20T14:05:55;49.00;;;24.58;;
4248;SDS011;8404;48.752;12.922;2022-12-20T14:08:25;49.88;;;24.98;;
4248;SDS011;8404;48.752;12.922;2022-12-20T14:11:05;49.83;;;26.83;;
4248;SDS011;8404;48.752;12.922;2022-12-20T14:13:34;47.40;;;26.30;;
4248;SDS011;8404;48.752;12.922;2022-12-20T14:16:06;50.10;;;26.08;;
4248;SDS011;8404;48.752;12.922;2022-12-20T14:18:36;48.65;;;26.10;;
4248;SDS011;8404;48.752;12.922;2022-12-20T14:21:06;45.33;;;23.65;;
4248;SDS011;8404;48.752;12.922;2022-12-20T14:23:36;51.60;;;24.75;;
4248;SDS011;8404;48.752;12.922;2022-12-20T14:26:09;47.08;;;23.73;;
4248;SDS011;8404;48.752;12.922;2022-12-20T14:28:40;50.35;;;25.45;;
4248;SDS011;8404;48.752;12.922;2022-12-20T14:31:21;46.22;;;23.55;;
4248;SDS011;8404;48.752;12.922;2022-12-20T14:33:52;46.78;;;23.63;;
4248;SDS011;8404;48.752;12.922;2022-12-20T14:36:30;44.15;;;22.98;;
4248;SDS011;8404;48.752;12.922;2022-12-20T14:38:59;51.70;;;25.25;;
4248;SDS011;8404;48.752;12.922;2022-12-20T14:41:28;48.42;;;24.45;;
4248;SDS011;8404;48.752;12.922;2022-12-20T14:44:02;47.90;;;24.25;;
4248;SDS011;8404;48.752;12.922;2022-12-20T14:46:41;50.72;;;24.00;;
4248;SDS011;8404;48.752;12.922;2022-12-20T14:49:17;51.20;;;25.23;;
4248;SDS011;8404;48.752;12.922;2022-12-20T14:51:50;49.50;;;24.73;;
4248;SDS011;8404;48.752;12.922;2022-12-20T14:54:30;45.88;;;22.85;;
4248;SDS011;8404;48.752;12.922;2022-12-20T14:57:20;51.58;;;25.88;;
4248;SDS011;8404;48.752;12.922;2022-12-20T14:59:58;46.55;;;23.42;;
4248;SDS011;8404;48.752;12.922;2022-12-20T15:02:32;50.83;;;24.27;;
4248;SDS011;8404;48.752;12.922;2022-12-20T15:08:12;49.53;;;23.17;;
4248;SDS011;8404;48.752;12.922;2022-12-20T15:10:46;50.63;;;25.58;;
4248;SDS011;8404;48.752;12.922;2022-12-20T15:13:20;47.08;;;23.50;;
4248;SDS011;8404;48.752;12.922;2022-12-20T15:15:51;49.38;;;23.50;;
4248;SDS011;8404;48.752;12.922;2022-12-20T15:18:20;54.50;;;25.52;;
4248;SDS011;8404;48.752;12.922;2022-12-20T15:20:48;51.88;;;24.75;;
4248;SDS011;8404;48.752;12.922;2022-12-20T15:23:29;54.80;;;26.70;;
4248;SDS011;8404;48.752;12.922;2022-12-20T15:25:58;70.03;;;31.05;;
4248;SDS011;8404;48.752;12.922;2022-12-20T15:28:26;59.65;;;28.20;;
4248;SDS011;8404;48.752;12.922;2022-12-20T15:30:54;57.70;;;27.58;;
4248;SDS011;8404;48.752;12.922;2022-12-20T15:33:23;63.50;;;29.38;;
4248;SDS011;8404;48.752;12.922;2022-12-20T15:35:53;50.80;;;25.45;;
4248;SDS011;8404;48.752;12.922;2022-12-20T15:38:21;52.58;;;24.77;;
4248;SDS011;8404;48.752;12.922;2022-12-20T15:41:12;52.38;;;25.20;;
4248;SDS011;8404;48.752;12.922;2022-12-20T15:43:46;45.08;;;24.17;;
4248;SDS011;8404;48.752;12.922;2022-12-20T15:46:15;50.65;;;25.10;;
4248;SDS011;8404;48.752;12.922;2022-12-20T15:48:44;51.00;;;25.75;;
4248;SDS011;8404;48.752;12.922;2022-12-20T15:51:13;54.10;;;25.77;;
4248;SDS011;8404;48.752;12.922;2022-12-20T15:53:44;48.65;;;25.20;;
4248;SDS011;8404;48.752;12.922;2022-12-20T15:56:15;50.92;;;26.33;;
4248;SDS011;8404;48.752;12.922;2022-12-20T15:58:46;50.65;;;25.85;;
4248;SDS011;8404;48.752;12.922;2022-12-20T16:01:16;51.35;;;27.45;;
4248;SDS011;8404;48.752;12.922;2022-12-20T16:03:46;58.05;;;27.55;;
4248;SDS011;8404;48.752;12.922;2022-12-20T16:06:14;54.35;;;26.48;;
4248;SDS011;8404;48.752;12.922;2022-12-20T16:08:42;53.55;;;24.27;;
4248;SDS011;8404;48.752;12.922;2022-12-20T16:11:16;46.97;;;24.65;;
4248;SDS011;8404;48.752;12.922;2022-12-20T16:13:47;59.08;;;25.13;;
4248;SDS011;8404;48.752;12.922;2022-12-20T16:16:15;59.05;;;26.88;;
4248;SDS011;8404;48.752;12.922;2022-12-20T16:18:44;53.42;;;25.17;;
4248;SDS011;8404;48.752;12.922;2022-12-20T16:21:14;56.83;;;25.80;;
4248;SDS011;8404;48.752;12.922;2022-12-20T16:23:44;59.30;;;26.83;;
4248;SDS011;8404;48.752;12.922;2022-12-20T16:26:12;52.70;;;24.83;;
4248;SDS011;8404;48.752;12.922;2022-12-20T16:28:44;48.63;;;24.38;;
4248;SDS011;8404;48.752;12.922;2022-12-20T16:31:16;53.08;;;25.58;;
4248;SDS011;8404;48.752;12.922;2022-12-20T16:33:50;50.83;;;26.58;;
4248;SDS011;8404;48.752;12.922;2022-12-20T16:36:19;55.53;;;25.83;;
4248;SDS011;8404;48.752;12.922;2022-12-20T16:38:48;55.00;;;25.23;;
4248;SDS011;8404;48.752;12.922;2022-12-20T16:41:18;54.25;;;26.25;;
4248;SDS011;8404;48.752;12.922;2022-12-20T16:43:47;45.13;;;22.73;;
4248;SDS011;8404;48.752;12.922;2022-12-20T16:46:17;45.83;;;24.02;;
4248;SDS011;8404;48.752;12.922;2022-12-20T16:48:47;47.05;;;23.00;;
4248;SDS011;8404;48.752;12.922;2022-12-20T16:51:22;47.85;;;21.70;;
4248;SDS011;8404;48.752;12.922;2022-12-20T16:53:52;46.85;;;23.25;;
4248;SDS011;8404;48.752;12.922;2022-12-20T16:56:42;46.30;;;23.02;;
4248;SDS011;8404;48.752;12.922;2022-12-20T16:59:11;51.63;;;24.42;;
4248;SDS011;8404;48.752;12.922;2022-12-20T17:01:48;51.63;;;25.58;;
4248;SDS011;8404;48.752;12.922;2022-12-20T17:04:19;53.25;;;25.75;;
4248;SDS011;8404;48.752;12.922;2022-12-20T17:06:48;54.97;;;24.45;;
4248;SDS011;8404;48.752;12.922;2022-12-20T17:09:16;59.50;;;24.27;;
4248;SDS011;8404;48.752;12.922;2022-12-20T17:12:07;49.97;;;24.17;;
4248;SDS011;8404;48.752;12.922;2022-12-20T17:14:40;50.50;;;23.88;;
4248;SDS011;8404;48.752;12.922;2022-12-20T17:17:08;45.97;;;22.60;;
4248;SDS011;8404;48.752;12.922;2022-12-20T17:19:36;50.08;;;24.02;;
4248;SDS011;8404;48.752;12.922;2022-12-20T17:22:05;46.17;;;22.65;;
4248;SDS011;8404;48.752;12.922;2022-12-20T17:24:49;49.03;;;23.58;;
4248;SDS011;8404;48.752;12.922;2022-12-20T17:27:18;43.58;;;22.15;;
4248;SDS011;8404;48.752;12.922;2022-12-20T17:29:46;47.22;;;23.27;;
4248;SDS011;8404;48.752;12.922;2022-12-20T17:32:17;54.25;;;25.00;;
4248;SDS011;8404;48.752;12.922;2022-12-20T17:34:47;48.03;;;24.63;;
4248;SDS011;8404;48.752;12.922;2022-12-20T17:37:15;46.80;;;23.83;;
4248;SDS011;8404;48.752;12.922;2022-12-20T17:39:43;48.40;;;21.85;;
4248;SDS011;8404;48.752;12.922;2022-12-20T17:42:12;47.83;;;21.73;;
4248;SDS011;8404;48.752;12.922;2022-12-20T17:44:41;43.47;;;22.00;;
4248;SDS011;8404;48.752;12.922;2022-12-20T17:47:11;48.92;;;23.88;;
4248;SDS011;8404;48.752;12.922;2022-12-20T17:49:39;41.53;;;21.40;;
4248;SDS011;8404;48.752;12.922;2022-12-20T17:52:10;48.72;;;23.38;;
4248;SDS011;8404;48.752;12.922;2022-12-20T17:54:39;50.40;;;23.30;;
4248;SDS011;8404;48.752;12.922;2022-12-20T17:57:10;44.05;;;23.80;;
4248;SDS011;8404;48.752;12.922;2022-12-20T17:59:41;46.55;;;23.55;;
4248;SDS011;8404;48.752;12.922;2022-12-20T18:02:17;46.20;;;24.17;;
4248;SDS011;8404;48.752;12.922;2022-12-20T18:04:47;47.22;;;23.70;;
4248;SDS011;8404;48.752;12.922;2022-12-20T18:07:16;43.67;;;23.50;;
4248;SDS011;8404;48.752;12.922;2022-12-20T18:09:44;44.63;;;22.02;;
4248;SDS011;8404;48.752;12.922;2022-12-20T18:12:13;45.83;;;21.98;;
4248;SDS011;8404;48.752;12.922;2022-12-20T18:14:43;50.33;;;23.40;;
4248;SDS011;8404;48.752;12.922;2022-12-20T18:17:14;41.78;;;21.90;;
4248;SDS011;8404;48.752;12.922;2022-12-20T18:19:43;45.55;;;23.15;;
4248;SDS011;8404;48.752;12.922;2022-12-20T18:22:12;58.83;;;26.60;;
4248;SDS011;8404;48.752;12.922;2022-12-20T18:24:40;52.70;;;26.38;;
4248;SDS011;8404;48.752;12.922;2022-12-20T18:27:08;43.97;;;23.83;;
4248;SDS011;8404;48.752;12.922;2022-12-20T18:29:36;48.10;;;22.58;;
4248;SDS011;8404;48.752;12.922;2022-12-20T18:32:06;48.15;;;21.65;;
4248;SDS011;8404;48.752;12.922;2022-12-20T18:34:34;50.60;;;25.55;;
4248;SDS011;8404;48.752;12.922;2022-12-20T18:37:02;49.05;;;24.55;;
4248;SDS011;8404;48.752;12.922;2022-12-20T18:39:31;48.95;;;24.50;;
4248;SDS011;8404;48.752;12.922;2022-12-20T18:41:59;47.33;;;23.50;;
4248;SDS011;8404;48.752;12.922;2022-12-20T18:44:27;55.10;;;24.90;;